sensor_id;sensor_type;location;lat;lon;timestamp;P1;durP1;ratioP1;P2;durP2;ratioP2
37777;SDS011;23615;51.506;7.678;2023-02-13T00:02:08;11.40;;;9.77;;
37777;SDS011;23615;51.506;7.678;2023-02-13T00:04:34;11.90;;;10.60;;
37777;SDS011;23615;51.506;7.678;2023-02-13T00:06:59;12.00;;;9.70;;
37777;SDS011;23615;51.506;7.678;2023-02-13T00:09:25;11.52;;;10.23;;
37777;SDS011;23615;51.506;7.678;2023-02-13T00:11:50;11.67;;;9.93;;
37777;SDS011;23615;51.506;7.678;2023-02-13T00:14:15;10.97;;;9.63;;
37777;SDS011;23615;51.506;7.678;2023-02-13T00:16:41;10.55;;;9.43;;
37777;SDS011;23615;51.506;7.678;2023-02-13T00:19:06;10.13;;;8.57;;
37777;SDS011;23615;51.506;7.678;2023-02-13T00:21:31;10.87;;;9.07;;
37777;SDS011;23615;51.506;7.678;2023-02-13T00:23:57;11.30;;;9.60;;
37777;SDS011;23615;51.506;7.678;2023-02-13T00:26:22;10.43;;;9.03;;
37777;SDS011;23615;51.506;7.678;2023-02-13T00:28:47;11.57;;;10.37;;
37777;SDS011;23615;51.506;7.678;2023-02-13T00:31:14;11.27;;;9.63;;
37777;SDS011;23615;51.506;7.678;2023-02-13T00:33:40;12.55;;;10.30;;
37777;SDS011;23615;51.506;7.678;2023-02-13T00:36:10;11.13;;;9.87;;
37777;SDS011;23615;51.506;7.678;2023-02-13T00:38:40;11.30;;;9.88;;
37777;SDS011;23615;51.506;7.678;2023-02-13T00:41:06;12.35;;;10.80;;
37777;SDS011;23615;51.506;7.678;2023-02-13T00:43:32;13.77;;;11.18;;
37777;SDS011;23615;51.506;7.678;2023-02-13T00:45:57;11.93;;;10.23;;
37777;SDS011;23615;51.506;7.678;2023-02-13T00:48:23;11.70;;;9.98;;
37777;SDS011;23615;51.506;7.678;2023-02-13T00:50:49;11.07;;;9.88;;
37777;SDS011;23615;51.506;7.678;2023-02-13T00:53:16;13.20;;;10.33;;
37777;SDS011;23615;51.506;7.678;2023-02-13T00:55:42;11.23;;;9.63;;
37777;SDS011;23615;51.506;7.678;2023-02-13T00:58:07;11.47;;;9.33;;
37777;SDS011;23615;51.506;7.678;2023-02-13T01:00:33;11.20;;;8.87;;
37777;SDS011;23615;51.506;7.678;2023-02-13T01:02:58;11.13;;;9.23;;
37777;SDS011;23615;51.506;7.678;2023-02-13T01:05:23;10.80;;;8.75;;
37777;SDS011;23615;51.506;7.678;2023-02-13T01:07:49;10.27;;;7.70;;
37777;SDS011;23615;51.506;7.678;2023-02-13T01:10:14;9.00;;;7.85;;
37777;SDS011;23615;51.506;7.678;2023-02-13T01:12:40;9.75;;;7.78;;
37777;SDS011;23615;51.506;7.678;2023-02-13T01:15:05;8.07;;;7.25;;
37777;SDS011;23615;51.506;7.678;2023-02-13T01:17:31;8.52;;;7.10;;
37777;SDS011;23615;51.506;7.678;2023-02-13T01:19:56;9.03;;;7.53;;
37777;SDS011;23615;51.506;7.678;2023-02-13T01:22:21;8.10;;;6.67;;
37777;SDS011;23615;51.506;7.678;2023-02-13T01:24:47;8.50;;;6.60;;
37777;SDS011;23615;51.506;7.678;2023-02-13T01:27:12;7.00;;;6.27;;
37777;SDS011;23615;51.506;7.678;2023-02-13T01:29:37;8.63;;;7.20;;
37777;SDS011;23615;51.506;7.678;2023-02-13T01:32:03;6.53;;;5.83;;
37777;SDS011;23615;51.506;7.678;2023-02-13T01:34:29;6.75;;;6.05;;
37777;SDS011;23615;51.506;7.678;2023-02-13T01:36:58;7.65;;;6.55;;
37777;SDS011;23615;51.506;7.678;2023-02-13T01:39:23;6.32;;;5.40;;
37777;SDS011;23615;51.506;7.678;2023-02-13T01:41:49;6.77;;;5.40;;
37777;SDS011;23615;51.506;7.678;2023-02-13T01:50:00;5.18;;;4.63;;
37777;SDS011;23615;51.506;7.678;2023-02-13T01:52:30;4.88;;;4.32;;
37777;SDS011;23615;51.506;7.678;2023-02-13T01:54:55;4.40;;;4.00;;
37777;SDS011;23615;51.506;7.678;2023-02-13T01:57:21;4.67;;;3.80;;
37777;SDS011;23615;51.506;7.678;2023-02-13T01:59:54;4.35;;;3.58;;
37777;SDS011;23615;51.506;7.678;2023-02-13T02:02:54;3.85;;;3.45;;
37777;SDS011;23615;51.506;7.678;2023-02-13T02:05:25;3.95;;;3.55;;
37777;SDS011;23615;51.506;7.678;2023-02-13T02:07:53;4.32;;;3.40;;
37777;SDS011;23615;51.506;7.678;2023-02-13T02:10:21;3.38;;;2.60;;
37777;SDS011;23615;51.506;7.678;2023-02-13T02:15:24;3.28;;;2.92;;
37777;SDS011;23615;51.506;7.678;2023-02-13T02:17:50;3.22;;;2.80;;
37777;SDS011;23615;51.506;7.678;2023-02-13T02:20:23;3.53;;;2.87;;
37777;SDS011;23615;51.506;7.678;2023-02-13T02:28:41;3.80;;;3.10;;
37777;SDS011;23615;51.506;7.678;2023-02-13T02:34:19;4.40;;;3.63;;
37777;SDS011;23615;51.506;7.678;2023-02-13T02:43:13;4.05;;;3.20;;
37777;SDS011;23615;51.506;7.678;2023-02-13T02:45:39;3.22;;;2.55;;
37777;SDS011;23615;51.506;7.678;2023-02-13T02:48:31;3.00;;;2.70;;
37777;SDS011;23615;51.506;7.678;2023-02-13T02:51:24;3.30;;;2.72;;
37777;SDS011;23615;51.506;7.678;2023-02-13T02:56:48;3.03;;;2.33;;
37777;SDS011;23615;51.506;7.678;2023-02-13T02:59:16;2.88;;;2.17;;
37777;SDS011;23615;51.506;7.678;2023-02-13T03:02:04;3.40;;;2.65;;
37777;SDS011;23615;51.506;7.678;2023-02-13T03:04:53;2.13;;;1.83;;
37777;SDS011;23615;51.506;7.678;2023-02-13T03:07:38;1.50;;;1.40;;
37777;SDS011;23615;51.506;7.678;2023-02-13T03:10:05;1.87;;;1.43;;
37777;SDS011;23615;51.506;7.678;2023-02-13T03:13:03;1.58;;;1.48;;
37777;SDS011;23615;51.506;7.678;2023-02-13T03:15:45;1.40;;;1.30;;
37777;SDS011;23615;51.506;7.678;2023-02-13T03:18:30;1.40;;;1.30;;
37777;SDS011;23615;51.506;7.678;2023-02-13T03:27:29;1.30;;;1.20;;
37777;SDS011;23615;51.506;7.678;2023-02-13T03:32:58;1.00;;;0.90;;
37777;SDS011;23615;51.506;7.678;2023-02-13T03:35:52;1.10;;;0.85;;
37777;SDS011;23615;51.506;7.678;2023-02-13T03:38:56;0.93;;;0.80;;
37777;SDS011;23615;51.506;7.678;2023-02-13T03:41:39;1.02;;;0.93;;
37777;SDS011;23615;51.506;7.678;2023-02-13T03:44:11;0.77;;;0.60;;
37777;SDS011;23615;51.506;7.678;2023-02-13T03:46:43;0.77;;;0.77;;
37777;SDS011;23615;51.506;7.678;2023-02-13T03:49:16;0.80;;;0.77;;
37777;SDS011;23615;51.506;7.678;2023-02-13T03:52:50;0.80;;;0.70;;
37777;SDS011;23615;51.506;7.678;2023-02-13T03:55:02;0.85;;;0.75;;
37777;SDS011;23615;51.506;7.678;2023-02-13T03:57:54;0.70;;;0.70;;
37777;SDS011;23615;51.506;7.678;2023-02-13T04:00:43;0.82;;;0.70;;
37777;SDS011;23615;51.506;7.678;2023-02-13T04:03:16;0.80;;;0.70;;
37777;SDS011;23615;51.506;7.678;2023-02-13T04:06:05;0.80;;;0.80;;
37777;SDS011;23615;51.506;7.678;2023-02-13T04:08:32;1.10;;;0.85;;
37777;SDS011;23615;51.506;7.678;2023-02-13T04:11:06;0.90;;;0.77;;
37777;SDS011;23615;51.506;7.678;2023-02-13T04:13:41;0.73;;;0.73;;
37777;SDS011;23615;51.506;7.678;2023-02-13T04:16:13;1.13;;;1.03;;
37777;SDS011;23615;51.506;7.678;2023-02-13T04:18:42;1.20;;;1.08;;
37777;SDS011;23615;51.506;7.678;2023-02-13T04:21:09;1.00;;;0.90;;
37777;SDS011;23615;51.506;7.678;2023-02-13T04:23:34;1.07;;;0.97;;
37777;SDS011;23615;51.506;7.678;2023-02-13T04:26:05;1.47;;;1.20;;
37777;SDS011;23615;51.506;7.678;2023-02-13T04:28:32;1.27;;;1.17;;
37777;SDS011;23615;51.506;7.678;2023-02-13T04:30:58;1.30;;;1.20;;
37777;SDS011;23615;51.506;7.678;2023-02-13T04:33:23;1.10;;;1.00;;
37777;SDS011;23615;51.506;7.678;2023-02-13T04:35:49;0.60;;;0.57;;
37777;SDS011;23615;51.506;7.678;2023-02-13T04:38:14;1.40;;;1.20;;
37777;SDS011;23615;51.506;7.678;2023-02-13T04:40:39;1.55;;;1.27;;
37777;SDS011;23615;51.506;7.678;2023-02-13T04:43:04;0.93;;;0.90;;
37777;SDS011;23615;51.506;7.678;2023-02-13T04:45:30;1.20;;;0.93;;
37777;SDS011;23615;51.506;7.678;2023-02-13T04:47:55;2.03;;;1.00;;
37777;SDS011;23615;51.506;7.678;2023-02-13T04:50:21;1.10;;;1.00;;
37777;SDS011;23615;51.506;7.678;2023-02-13T04:52:49;1.85;;;1.67;;
37777;SDS011;23615;51.506;7.678;2023-02-13T04:55:18;2.75;;;2.53;;
37777;SDS011;23615;51.506;7.678;2023-02-13T04:57:43;2.33;;;2.13;;
37777;SDS011;23615;51.506;7.678;2023-02-13T05:00:09;2.10;;;2.00;;
37777;SDS011;23615;51.506;7.678;2023-02-13T05:02:35;3.05;;;2.75;;
37777;SDS011;23615;51.506;7.678;2023-02-13T05:05:01;2.53;;;2.33;;
37777;SDS011;23615;51.506;7.678;2023-02-13T05:07:26;2.07;;;1.87;;
37777;SDS011;23615;51.506;7.678;2023-02-13T05:09:51;1.73;;;1.63;;
37777;SDS011;23615;51.506;7.678;2023-02-13T05:12:16;1.90;;;1.70;;
37777;SDS011;23615;51.506;7.678;2023-02-13T05:14:43;1.75;;;1.50;;
37777;SDS011;23615;51.506;7.678;2023-02-13T05:17:09;1.47;;;1.33;;
37777;SDS011;23615;51.506;7.678;2023-02-13T05:19:34;2.50;;;2.30;;
37777;SDS011;23615;51.506;7.678;2023-02-13T05:21:59;2.30;;;2.03;;
37777;SDS011;23615;51.506;7.678;2023-02-13T05:24:43;2.93;;;2.50;;
37777;SDS011;23615;51.506;7.678;2023-02-13T05:27:08;2.10;;;1.90;;
37777;SDS011;23615;51.506;7.678;2023-02-13T05:29:34;2.67;;;2.47;;
37777;SDS011;23615;51.506;7.678;2023-02-13T05:31:59;2.20;;;2.00;;
37777;SDS011;23615;51.506;7.678;2023-02-13T05:34:25;2.00;;;1.80;;
37777;SDS011;23615;51.506;7.678;2023-02-13T05:36:51;1.90;;;1.42;;
37777;SDS011;23615;51.506;7.678;2023-02-13T05:39:17;2.17;;;1.98;;
37777;SDS011;23615;51.506;7.678;2023-02-13T05:41:43;1.50;;;1.40;;
37777;SDS011;23615;51.506;7.678;2023-02-13T05:44:10;1.83;;;1.73;;
37777;SDS011;23615;51.506;7.678;2023-02-13T05:46:37;2.13;;;1.92;;
37777;SDS011;23615;51.506;7.678;2023-02-13T05:49:03;2.58;;;2.17;;
37777;SDS011;23615;51.506;7.678;2023-02-13T05:51:29;2.58;;;2.05;;
37777;SDS011;23615;51.506;7.678;2023-02-13T05:53:54;2.47;;;2.00;;
37777;SDS011;23615;51.506;7.678;2023-02-13T05:56:20;2.07;;;1.87;;
37777;SDS011;23615;51.506;7.678;2023-02-13T05:58:45;2.10;;;1.70;;
37777;SDS011;23615;51.506;7.678;2023-02-13T06:01:11;2.13;;;1.80;;
37777;SDS011;23615;51.506;7.678;2023-02-13T06:03:36;2.47;;;2.27;;
37777;SDS011;23615;51.506;7.678;2023-02-13T06:06:01;2.80;;;2.40;;
37777;SDS011;23615;51.506;7.678;2023-02-13T06:08:27;2.60;;;2.20;;
37777;SDS011;23615;51.506;7.678;2023-02-13T06:10:52;2.70;;;1.67;;
37777;SDS011;23615;51.506;7.678;2023-02-13T06:13:18;5.43;;;4.82;;
37777;SDS011;23615;51.506;7.678;2023-02-13T06:15:44;3.78;;;3.33;;
37777;SDS011;23615;51.506;7.678;2023-02-13T06:18:10;3.33;;;3.03;;
37777;SDS011;23615;51.506;7.678;2023-02-13T06:20:36;2.55;;;2.25;;
37777;SDS011;23615;51.506;7.678;2023-02-13T06:23:01;3.20;;;2.50;;
37777;SDS011;23615;51.506;7.678;2023-02-13T06:25:27;2.83;;;2.40;;
37777;SDS011;23615;51.506;7.678;2023-02-13T06:27:52;3.10;;;2.70;;
37777;SDS011;23615;51.506;7.678;2023-02-13T06:30:17;2.47;;;2.20;;
37777;SDS011;23615;51.506;7.678;2023-02-13T06:32:44;2.53;;;1.70;;
37777;SDS011;23615;51.506;7.678;2023-02-13T06:35:11;2.65;;;2.20;;
37777;SDS011;23615;51.506;7.678;2023-02-13T06:37:36;3.00;;;2.00;;
37777;SDS011;23615;51.506;7.678;2023-02-13T06:40:03;2.65;;;2.08;;
37777;SDS011;23615;51.506;7.678;2023-02-13T06:42:30;1.85;;;1.67;;
37777;SDS011;23615;51.506;7.678;2023-02-13T06:44:55;2.50;;;1.80;;
37777;SDS011;23615;51.506;7.678;2023-02-13T06:47:20;2.13;;;1.70;;
37777;SDS011;23615;51.506;7.678;2023-02-13T06:49:45;1.50;;;1.40;;
37777;SDS011;23615;51.506;7.678;2023-02-13T06:52:11;1.97;;;1.60;;
37777;SDS011;23615;51.506;7.678;2023-02-13T06:54:36;1.77;;;1.30;;
37777;SDS011;23615;51.506;7.678;2023-02-13T06:57:01;1.20;;;1.10;;
37777;SDS011;23615;51.506;7.678;2023-02-13T06:59:26;1.17;;;1.02;;
37777;SDS011;23615;51.506;7.678;2023-02-13T07:01:52;1.40;;;1.07;;
37777;SDS011;23615;51.506;7.678;2023-02-13T07:04:17;1.33;;;0.90;;
37777;SDS011;23615;51.506;7.678;2023-02-13T07:06:42;2.43;;;1.20;;
37777;SDS011;23615;51.506;7.678;2023-02-13T07:09:07;1.90;;;1.30;;
37777;SDS011;23615;51.506;7.678;2023-02-13T07:11:33;2.93;;;1.50;;
37777;SDS011;23615;51.506;7.678;2023-02-13T07:13:58;2.00;;;1.50;;
37777;SDS011;23615;51.506;7.678;2023-02-13T07:16:23;2.57;;;1.73;;
37777;SDS011;23615;51.506;7.678;2023-02-13T07:18:49;1.88;;;1.50;;
37777;SDS011;23615;51.506;7.678;2023-02-13T07:21:14;1.58;;;1.45;;
37777;SDS011;23615;51.506;7.678;2023-02-13T07:23:39;1.57;;;1.37;;
37777;SDS011;23615;51.506;7.678;2023-02-13T07:26:05;2.97;;;1.60;;
37777;SDS011;23615;51.506;7.678;2023-02-13T07:28:31;2.15;;;1.50;;
37777;SDS011;23615;51.506;7.678;2023-02-13T07:30:56;1.93;;;1.53;;
37777;SDS011;23615;51.506;7.678;2023-02-13T07:33:23;2.23;;;2.03;;
37777;SDS011;23615;51.506;7.678;2023-02-13T07:35:49;2.38;;;1.48;;
37777;SDS011;23615;51.506;7.678;2023-02-13T07:38:16;1.77;;;1.52;;
37777;SDS011;23615;51.506;7.678;2023-02-13T07:40:42;1.73;;;1.60;;
37777;SDS011;23615;51.506;7.678;2023-02-13T07:43:08;1.80;;;1.70;;
37777;SDS011;23615;51.506;7.678;2023-02-13T07:45:33;1.97;;;1.77;;
37777;SDS011;23615;51.506;7.678;2023-02-13T07:47:59;2.93;;;2.60;;
37777;SDS011;23615;51.506;7.678;2023-02-13T07:50:24;3.07;;;2.27;;
37777;SDS011;23615;51.506;7.678;2023-02-13T07:52:57;4.15;;;2.95;;
37777;SDS011;23615;51.506;7.678;2023-02-13T07:55:24;3.10;;;2.40;;
37777;SDS011;23615;51.506;7.678;2023-02-13T07:57:51;5.37;;;3.17;;
37777;SDS011;23615;51.506;7.678;2023-02-13T08:00:17;3.67;;;2.97;;
37777;SDS011;23615;51.506;7.678;2023-02-13T08:02:43;3.60;;;3.08;;
37777;SDS011;23615;51.506;7.678;2023-02-13T08:05:09;3.35;;;3.05;;
37777;SDS011;23615;51.506;7.678;2023-02-13T08:07:34;2.87;;;2.60;;
37777;SDS011;23615;51.506;7.678;2023-02-13T08:10:00;4.07;;;3.50;;
37777;SDS011;23615;51.506;7.678;2023-02-13T08:12:45;4.27;;;3.87;;
37777;SDS011;23615;51.506;7.678;2023-02-13T08:15:11;4.35;;;3.95;;
37777;SDS011;23615;51.506;7.678;2023-02-13T08:17:38;4.05;;;3.65;;
37777;SDS011;23615;51.506;7.678;2023-02-13T08:20:03;3.83;;;3.43;;
37777;SDS011;23615;51.506;7.678;2023-02-13T08:22:32;4.93;;;3.95;;
37777;SDS011;23615;51.506;7.678;2023-02-13T08:24:57;4.37;;;3.67;;
37777;SDS011;23615;51.506;7.678;2023-02-13T08:27:23;4.40;;;4.00;;
37777;SDS011;23615;51.506;7.678;2023-02-13T08:29:48;7.23;;;5.93;;
37777;SDS011;23615;51.506;7.678;2023-02-13T08:32:14;6.25;;;5.65;;
37777;SDS011;23615;51.506;7.678;2023-02-13T08:34:40;6.20;;;5.10;;
37777;SDS011;23615;51.506;7.678;2023-02-13T08:37:05;5.93;;;5.33;;
37777;SDS011;23615;51.506;7.678;2023-02-13T08:39:30;4.50;;;4.10;;
37777;SDS011;23615;51.506;7.678;2023-02-13T08:41:55;5.57;;;4.67;;
37777;SDS011;23615;51.506;7.678;2023-02-13T08:44:21;4.30;;;3.90;;
37777;SDS011;23615;51.506;7.678;2023-02-13T08:46:46;5.55;;;4.15;;
37777;SDS011;23615;51.506;7.678;2023-02-13T08:49:11;6.10;;;4.83;;
37777;SDS011;23615;51.506;7.678;2023-02-13T08:51:36;4.73;;;3.90;;
37777;SDS011;23615;51.506;7.678;2023-02-13T08:54:02;4.53;;;3.67;;
37777;SDS011;23615;51.506;7.678;2023-02-13T08:56:27;5.87;;;4.73;;
37777;SDS011;23615;51.506;7.678;2023-02-13T08:58:52;5.67;;;4.57;;
37777;SDS011;23615;51.506;7.678;2023-02-13T09:01:19;6.72;;;5.85;;
37777;SDS011;23615;51.506;7.678;2023-02-13T09:03:44;6.30;;;5.03;;
37777;SDS011;23615;51.506;7.678;2023-02-13T09:06:09;5.73;;;4.47;;
37777;SDS011;23615;51.506;7.678;2023-02-13T09:08:35;8.57;;;5.40;;
37777;SDS011;23615;51.506;7.678;2023-02-13T09:11:01;4.87;;;4.13;;
37777;SDS011;23615;51.506;7.678;2023-02-13T09:13:28;5.40;;;4.13;;
37777;SDS011;23615;51.506;7.678;2023-02-13T09:16:01;6.53;;;4.65;;
37777;SDS011;23615;51.506;7.678;2023-02-13T09:18:27;5.78;;;4.55;;
37777;SDS011;23615;51.506;7.678;2023-02-13T09:20:59;5.70;;;4.32;;
37777;SDS011;23615;51.506;7.678;2023-02-13T09:23:29;4.53;;;3.92;;
37777;SDS011;23615;51.506;7.678;2023-02-13T09:25:57;5.40;;;4.20;;
37777;SDS011;23615;51.506;7.678;2023-02-13T09:28:24;5.30;;;3.85;;
37777;SDS011;23615;51.506;7.678;2023-02-13T09:30:49;4.33;;;3.60;;
37777;SDS011;23615;51.506;7.678;2023-02-13T09:33:14;4.20;;;3.60;;
37777;SDS011;23615;51.506;7.678;2023-02-13T09:35:40;4.87;;;3.60;;
37777;SDS011;23615;51.506;7.678;2023-02-13T09:38:06;4.93;;;3.67;;
37777;SDS011;23615;51.506;7.678;2023-02-13T09:40:34;4.60;;;3.50;;
37777;SDS011;23615;51.506;7.678;2023-02-13T09:45:55;4.50;;;3.70;;
37777;SDS011;23615;51.506;7.678;2023-02-13T09:48:28;4.50;;;3.70;;
37777;SDS011;23615;51.506;7.678;2023-02-13T09:50:57;4.03;;;3.25;;
37777;SDS011;23615;51.506;7.678;2023-02-13T09:53:23;4.32;;;3.65;;
37777;SDS011;23615;51.506;7.678;2023-02-13T09:55:59;3.50;;;3.20;;
37777;SDS011;23615;51.506;7.678;2023-02-13T10:01:33;4.25;;;3.08;;
37777;SDS011;23615;51.506;7.678;2023-02-13T10:04:22;4.00;;;3.20;;
37777;SDS011;23615;51.506;7.678;2023-02-13T10:06:56;5.18;;;4.00;;
37777;SDS011;23615;51.506;7.678;2023-02-13T10:12:36;3.17;;;2.83;;
37777;SDS011;23615;51.506;7.678;2023-02-13T10:18:26;2.17;;;1.90;;
37777;SDS011;23615;51.506;7.678;2023-02-13T10:21:00;2.00;;;1.60;;
37777;SDS011;23615;51.506;7.678;2023-02-13T10:26:06;1.73;;;1.50;;
37777;SDS011;23615;51.506;7.678;2023-02-13T10:28:43;2.90;;;2.00;;
37777;SDS011;23615;51.506;7.678;2023-02-13T10:31:32;1.63;;;1.40;;
37777;SDS011;23615;51.506;7.678;2023-02-13T10:37:08;1.80;;;1.50;;
37777;SDS011;23615;51.506;7.678;2023-02-13T10:39:39;2.42;;;1.67;;
37777;SDS011;23615;51.506;7.678;2023-02-13T10:42:22;2.17;;;1.60;;
37777;SDS011;23615;51.506;7.678;2023-02-13T10:45:32;2.25;;;1.73;;
37777;SDS011;23615;51.506;7.678;2023-02-13T10:51:44;2.05;;;1.50;;
37777;SDS011;23615;51.506;7.678;2023-02-13T10:54:20;3.28;;;1.98;;
37777;SDS011;23615;51.506;7.678;2023-02-13T10:59:36;2.22;;;1.85;;
37777;SDS011;23615;51.506;7.678;2023-02-13T11:02:30;2.67;;;2.03;;
37777;SDS011;23615;51.506;7.678;2023-02-13T11:05:01;2.50;;;2.30;;
37777;SDS011;23615;51.506;7.678;2023-02-13T11:07:38;2.63;;;2.00;;
37777;SDS011;23615;51.506;7.678;2023-02-13T11:10:12;2.63;;;1.70;;
37777;SDS011;23615;51.506;7.678;2023-02-13T11:12:45;2.03;;;1.50;;
37777;SDS011;23615;51.506;7.678;2023-02-13T11:15:26;2.33;;;2.13;;
37777;SDS011;23615;51.506;7.678;2023-02-13T11:17:59;2.47;;;2.08;;
37777;SDS011;23615;51.506;7.678;2023-02-13T11:23:17;2.75;;;2.30;;
37777;SDS011;23615;51.506;7.678;2023-02-13T11:26:40;2.70;;;2.47;;
37777;SDS011;23615;51.506;7.678;2023-02-13T11:28:52;2.00;;;1.80;;
37777;SDS011;23615;51.506;7.678;2023-02-13T11:33:48;2.90;;;2.60;;
37777;SDS011;23615;51.506;7.678;2023-02-13T11:36:15;2.13;;;1.77;;
37777;SDS011;23615;51.506;7.678;2023-02-13T11:38:58;2.97;;;2.05;;
37777;SDS011;23615;51.506;7.678;2023-02-13T11:41:38;1.90;;;1.70;;
37777;SDS011;23615;51.506;7.678;2023-02-13T11:44:14;2.17;;;1.67;;
37777;SDS011;23615;51.506;7.678;2023-02-13T11:46:46;3.35;;;2.38;;
37777;SDS011;23615;51.506;7.678;2023-02-13T11:49:23;2.22;;;1.67;;
37777;SDS011;23615;51.506;7.678;2023-02-13T11:51:51;2.70;;;2.28;;
37777;SDS011;23615;51.506;7.678;2023-02-13T11:57:24;2.25;;;2.00;;
37777;SDS011;23615;51.506;7.678;2023-02-13T11:59:55;2.80;;;1.70;;
37777;SDS011;23615;51.506;7.678;2023-02-13T12:02:22;3.35;;;2.97;;
37777;SDS011;23615;51.506;7.678;2023-02-13T12:04:52;2.55;;;2.17;;
37777;SDS011;23615;51.506;7.678;2023-02-13T12:07:38;3.22;;;2.70;;
37777;SDS011;23615;51.506;7.678;2023-02-13T12:10:15;2.90;;;2.50;;
37777;SDS011;23615;51.506;7.678;2023-02-13T12:13:25;2.20;;;2.00;;
37777;SDS011;23615;51.506;7.678;2023-02-13T12:15:59;2.55;;;2.35;;
37777;SDS011;23615;51.506;7.678;2023-02-13T12:18:33;2.55;;;2.00;;
37777;SDS011;23615;51.506;7.678;2023-02-13T12:21:17;3.05;;;2.63;;
37777;SDS011;23615;51.506;7.678;2023-02-13T12:27:10;3.35;;;3.05;;
37777;SDS011;23615;51.506;7.678;2023-02-13T12:29:52;2.00;;;1.88;;
37777;SDS011;23615;51.506;7.678;2023-02-13T12:43:46;2.10;;;1.90;;
37777;SDS011;23615;51.506;7.678;2023-02-13T12:54:50;3.22;;;2.90;;
37777;SDS011;23615;51.506;7.678;2023-02-13T12:57:35;2.42;;;2.20;;
37777;SDS011;23615;51.506;7.678;2023-02-13T13:00:19;3.03;;;2.50;;
37777;SDS011;23615;51.506;7.678;2023-02-13T13:02:57;2.85;;;2.53;;
37777;SDS011;23615;51.506;7.678;2023-02-13T13:14:01;3.15;;;2.85;;
37777;SDS011;23615;51.506;7.678;2023-02-13T13:19:22;2.83;;;2.63;;
37777;SDS011;23615;51.506;7.678;2023-02-13T13:22:04;3.40;;;3.00;;
37777;SDS011;23615;51.506;7.678;2023-02-13T13:27:43;3.97;;;3.50;;
37777;SDS011;23615;51.506;7.678;2023-02-13T13:30:17;3.63;;;3.25;;
37777;SDS011;23615;51.506;7.678;2023-02-13T13:32:47;3.58;;;3.20;;
37777;SDS011;23615;51.506;7.678;2023-02-13T13:35:16;4.63;;;4.07;;
37777;SDS011;23615;51.506;7.678;2023-02-13T13:37:50;4.75;;;3.38;;
37777;SDS011;23615;51.506;7.678;2023-02-13T13:40:38;3.40;;;3.05;;
37777;SDS011;23615;51.506;7.678;2023-02-13T13:46:23;4.22;;;2.78;;
37777;SDS011;23615;51.506;7.678;2023-02-13T13:49:15;2.88;;;2.20;;
37777;SDS011;23615;51.506;7.678;2023-02-13T13:51:48;3.40;;;3.10;;
37777;SDS011;23615;51.506;7.678;2023-02-13T13:59:17;3.70;;;3.40;;
37777;SDS011;23615;51.506;7.678;2023-02-13T14:07:34;3.65;;;2.67;;
37777;SDS011;23615;51.506;7.678;2023-02-13T14:10:01;2.38;;;2.17;;
37777;SDS011;23615;51.506;7.678;2023-02-13T14:14:52;3.23;;;2.80;;
37777;SDS011;23615;51.506;7.678;2023-02-13T14:22:52;2.95;;;2.53;;
37777;SDS011;23615;51.506;7.678;2023-02-13T14:25:20;3.33;;;2.70;;
37777;SDS011;23615;51.506;7.678;2023-02-13T14:27:58;3.50;;;2.70;;
37777;SDS011;23615;51.506;7.678;2023-02-13T14:32:59;3.45;;;3.15;;
37777;SDS011;23615;51.506;7.678;2023-02-13T14:35:28;2.47;;;2.28;;
37777;SDS011;23615;51.506;7.678;2023-02-13T14:38:04;2.67;;;2.47;;
37777;SDS011;23615;51.506;7.678;2023-02-13T14:48:18;3.92;;;2.92;;
37777;SDS011;23615;51.506;7.678;2023-02-13T14:50:49;3.00;;;2.70;;
37777;SDS011;23615;51.506;7.678;2023-02-13T14:53:22;4.22;;;3.20;;
37777;SDS011;23615;51.506;7.678;2023-02-13T14:56:24;4.35;;;3.08;;
37777;SDS011;23615;51.506;7.678;2023-02-13T14:58:51;3.00;;;2.70;;
37777;SDS011;23615;51.506;7.678;2023-02-13T15:01:31;4.22;;;3.13;;
37777;SDS011;23615;51.506;7.678;2023-02-13T15:04:08;3.23;;;2.93;;
37777;SDS011;23615;51.506;7.678;2023-02-13T15:06:40;2.58;;;2.35;;
37777;SDS011;23615;51.506;7.678;2023-02-13T15:09:44;3.22;;;2.92;;
37777;SDS011;23615;51.506;7.678;2023-02-13T15:14:49;3.30;;;3.00;;
37777;SDS011;23615;51.506;7.678;2023-02-13T15:19:43;2.60;;;2.33;;
37777;SDS011;23615;51.506;7.678;2023-02-13T15:22:31;2.77;;;2.30;;
37777;SDS011;23615;51.506;7.678;2023-02-13T15:24:59;2.80;;;2.60;;
37777;SDS011;23615;51.506;7.678;2023-02-13T15:27:26;2.90;;;2.60;;
37777;SDS011;23615;51.506;7.678;2023-02-13T15:33:02;2.40;;;2.20;;
37777;SDS011;23615;51.506;7.678;2023-02-13T15:35:44;2.20;;;2.00;;
37777;SDS011;23615;51.506;7.678;2023-02-13T15:38:34;2.70;;;2.50;;
37777;SDS011;23615;51.506;7.678;2023-02-13T15:41:08;2.33;;;1.92;;
37777;SDS011;23615;51.506;7.678;2023-02-13T15:43:45;1.95;;;1.83;;
37777;SDS011;23615;51.506;7.678;2023-02-13T15:46:19;2.28;;;2.08;;
37777;SDS011;23615;51.506;7.678;2023-02-13T15:48:49;2.47;;;2.27;;
37777;SDS011;23615;51.506;7.678;2023-02-13T15:54:05;3.13;;;2.80;;
37777;SDS011;23615;51.506;7.678;2023-02-13T15:56:45;2.10;;;1.90;;
37777;SDS011;23615;51.506;7.678;2023-02-13T15:59:11;2.40;;;2.20;;
37777;SDS011;23615;51.506;7.678;2023-02-13T16:01:39;2.92;;;2.70;;
37777;SDS011;23615;51.506;7.678;2023-02-13T16:04:08;2.92;;;2.72;;
37777;SDS011;23615;51.506;7.678;2023-02-13T16:06:35;3.40;;;3.10;;
37777;SDS011;23615;51.506;7.678;2023-02-13T16:09:00;2.70;;;2.50;;
37777;SDS011;23615;51.506;7.678;2023-02-13T16:14:56;2.65;;;2.45;;
37777;SDS011;23615;51.506;7.678;2023-02-13T16:22:27;2.80;;;2.60;;
37777;SDS011;23615;51.506;7.678;2023-02-13T16:25:13;2.70;;;2.50;;
37777;SDS011;23615;51.506;7.678;2023-02-13T16:27:42;2.40;;;2.20;;
37777;SDS011;23615;51.506;7.678;2023-02-13T16:38:27;2.15;;;1.98;;
37777;SDS011;23615;51.506;7.678;2023-02-13T16:41:03;2.73;;;2.53;;
37777;SDS011;23615;51.506;7.678;2023-02-13T16:43:53;2.47;;;2.27;;
37777;SDS011;23615;51.506;7.678;2023-02-13T16:46:41;2.50;;;2.30;;
37777;SDS011;23615;51.506;7.678;2023-02-13T16:49:15;2.17;;;1.98;;
37777;SDS011;23615;51.506;7.678;2023-02-13T16:51:44;2.63;;;2.42;;
37777;SDS011;23615;51.506;7.678;2023-02-13T16:56:39;2.77;;;2.10;;
37777;SDS011;23615;51.506;7.678;2023-02-13T17:01:43;2.22;;;2.03;;
37777;SDS011;23615;51.506;7.678;2023-02-13T17:04:18;2.40;;;2.28;;
37777;SDS011;23615;51.506;7.678;2023-02-13T17:06:46;2.03;;;1.92;;
37777;SDS011;23615;51.506;7.678;2023-02-13T17:09:11;2.40;;;2.27;;
37777;SDS011;23615;51.506;7.678;2023-02-13T17:11:37;2.95;;;2.70;;
37777;SDS011;23615;51.506;7.678;2023-02-13T17:14:03;2.88;;;2.63;;
37777;SDS011;23615;51.506;7.678;2023-02-13T17:16:28;2.60;;;2.37;;
37777;SDS011;23615;51.506;7.678;2023-02-13T17:18:53;2.20;;;2.10;;
37777;SDS011;23615;51.506;7.678;2023-02-13T17:21:18;2.97;;;2.67;;
37777;SDS011;23615;51.506;7.678;2023-02-13T17:23:47;3.05;;;2.67;;
37777;SDS011;23615;51.506;7.678;2023-02-13T17:26:12;2.00;;;1.90;;
37777;SDS011;23615;51.506;7.678;2023-02-13T17:28:37;2.33;;;2.13;;
37777;SDS011;23615;51.506;7.678;2023-02-13T17:31:03;2.33;;;2.10;;
37777;SDS011;23615;51.506;7.678;2023-02-13T17:33:33;2.13;;;1.92;;
37777;SDS011;23615;51.506;7.678;2023-02-13T17:35:59;2.42;;;2.22;;
37777;SDS011;23615;51.506;7.678;2023-02-13T17:38:24;2.10;;;1.90;;
37777;SDS011;23615;51.506;7.678;2023-02-13T17:40:50;2.33;;;1.90;;
37777;SDS011;23615;51.506;7.678;2023-02-13T17:43:17;2.15;;;2.03;;
37777;SDS011;23615;51.506;7.678;2023-02-13T17:45:44;2.10;;;1.95;;
37777;SDS011;23615;51.506;7.678;2023-02-13T17:48:10;2.80;;;2.08;;
37777;SDS011;23615;51.506;7.678;2023-02-13T17:50:36;1.80;;;1.70;;
37777;SDS011;23615;51.506;7.678;2023-02-13T17:53:22;2.13;;;1.92;;
37777;SDS011;23615;51.506;7.678;2023-02-13T17:55:49;1.85;;;1.70;;
37777;SDS011;23615;51.506;7.678;2023-02-13T17:58:14;1.48;;;1.38;;